sensor_id;sensor_type;location;lat;lon;timestamp;P1;durP1;ratioP1;P2;durP2;ratioP2
71610;SDS011;59459;51.172;6.682;2022-07-25T00:00:34;12.53;;;6.97;;
71610;SDS011;59459;51.172;6.682;2022-07-25T00:03:00;11.53;;;7.17;;
71610;SDS011;59459;51.172;6.682;2022-07-25T00:05:25;13.10;;;7.77;;
71610;SDS011;59459;51.172;6.682;2022-07-25T00:07:50;13.00;;;7.75;;
71610;SDS011;59459;51.172;6.682;2022-07-25T00:10:16;13.90;;;7.53;;
71610;SDS011;59459;51.172;6.682;2022-07-25T00:12:41;11.97;;;7.70;;
71610;SDS011;59459;51.172;6.682;2022-07-25T00:15:06;11.73;;;7.70;;
71610;SDS011;59459;51.172;6.682;2022-07-25T00:17:32;12.23;;;7.97;;
71610;SDS011;59459;51.172;6.682;2022-07-25T00:19:57;13.53;;;7.77;;
71610;SDS011;59459;51.172;6.682;2022-07-25T00:22:22;14.40;;;7.37;;
71610;SDS011;59459;51.172;6.682;2022-07-25T00:24:47;12.47;;;7.63;;
71610;SDS011;59459;51.172;6.682;2022-07-25T00:27:13;12.20;;;8.10;;
71610;SDS011;59459;51.172;6.682;2022-07-25T00:29:39;12.13;;;7.50;;
71610;SDS011;59459;51.172;6.682;2022-07-25T00:32:04;11.93;;;6.80;;
71610;SDS011;59459;51.172;6.682;2022-07-25T00:34:30;14.05;;;7.78;;
71610;SDS011;59459;51.172;6.682;2022-07-25T00:36:55;16.43;;;7.03;;
71610;SDS011;59459;51.172;6.682;2022-07-25T00:39:20;12.23;;;6.70;;
71610;SDS011;59459;51.172;6.682;2022-07-25T00:41:45;13.83;;;7.37;;
71610;SDS011;59459;51.172;6.682;2022-07-25T00:44:21;14.37;;;6.77;;
71610;SDS011;59459;51.172;6.682;2022-07-25T00:46:46;13.48;;;7.50;;
71610;SDS011;59459;51.172;6.682;2022-07-25T00:49:12;13.30;;;7.07;;
71610;SDS011;59459;51.172;6.682;2022-07-25T00:51:37;10.57;;;6.90;;
71610;SDS011;59459;51.172;6.682;2022-07-25T00:54:03;11.63;;;7.00;;
71610;SDS011;59459;51.172;6.682;2022-07-25T00:56:28;12.07;;;7.40;;
71610;SDS011;59459;51.172;6.682;2022-07-25T00:58:53;13.37;;;6.93;;
71610;SDS011;59459;51.172;6.682;2022-07-25T01:01:18;12.33;;;6.67;;
71610;SDS011;59459;51.172;6.682;2022-07-25T01:03:44;12.40;;;6.60;;
71610;SDS011;59459;51.172;6.682;2022-07-25T01:06:09;14.67;;;6.90;;
71610;SDS011;59459;51.172;6.682;2022-07-25T01:08:34;14.03;;;7.20;;
71610;SDS011;59459;51.172;6.682;2022-07-25T01:10:59;11.03;;;6.97;;
71610;SDS011;59459;51.172;6.682;2022-07-25T01:13:25;13.17;;;7.03;;
71610;SDS011;59459;51.172;6.682;2022-07-25T01:15:50;12.40;;;7.60;;
71610;SDS011;59459;51.172;6.682;2022-07-25T01:18:15;13.67;;;7.13;;
71610;SDS011;59459;51.172;6.682;2022-07-25T01:20:41;14.77;;;7.40;;
71610;SDS011;59459;51.172;6.682;2022-07-25T01:23:06;11.27;;;6.63;;
71610;SDS011;59459;51.172;6.682;2022-07-25T01:25:31;13.20;;;6.83;;
71610;SDS011;59459;51.172;6.682;2022-07-25T01:27:56;10.83;;;6.90;;
71610;SDS011;59459;51.172;6.682;2022-07-25T01:30:22;12.80;;;8.03;;
71610;SDS011;59459;51.172;6.682;2022-07-25T01:32:48;13.15;;;7.40;;
71610;SDS011;59459;51.172;6.682;2022-07-25T01:35:13;12.23;;;7.23;;
71610;SDS011;59459;51.172;6.682;2022-07-25T01:37:39;11.97;;;7.40;;
71610;SDS011;59459;51.172;6.682;2022-07-25T01:40:04;13.47;;;7.13;;
71610;SDS011;59459;51.172;6.682;2022-07-25T01:42:30;15.02;;;6.95;;
71610;SDS011;59459;51.172;6.682;2022-07-25T01:44:55;12.17;;;7.37;;
71610;SDS011;59459;51.172;6.682;2022-07-25T01:47:21;14.17;;;7.20;;
71610;SDS011;59459;51.172;6.682;2022-07-25T01:49:46;17.83;;;7.70;;
71610;SDS011;59459;51.172;6.682;2022-07-25T01:52:11;12.33;;;7.47;;
71610;SDS011;59459;51.172;6.682;2022-07-25T01:54:37;12.88;;;6.95;;
71610;SDS011;59459;51.172;6.682;2022-07-25T01:57:04;14.18;;;7.30;;
71610;SDS011;59459;51.172;6.682;2022-07-25T01:59:29;12.73;;;6.43;;
71610;SDS011;59459;51.172;6.682;2022-07-25T02:01:55;13.07;;;7.17;;
71610;SDS011;59459;51.172;6.682;2022-07-25T02:04:20;12.90;;;6.90;;
71610;SDS011;59459;51.172;6.682;2022-07-25T02:06:45;11.57;;;5.67;;
71610;SDS011;59459;51.172;6.682;2022-07-25T02:09:10;11.20;;;6.27;;
71610;SDS011;59459;51.172;6.682;2022-07-25T02:11:36;10.67;;;5.97;;
71610;SDS011;59459;51.172;6.682;2022-07-25T02:14:01;15.43;;;6.70;;
71610;SDS011;59459;51.172;6.682;2022-07-25T02:16:27;14.18;;;6.55;;
71610;SDS011;59459;51.172;6.682;2022-07-25T02:18:52;12.73;;;6.93;;
71610;SDS011;59459;51.172;6.682;2022-07-25T02:21:17;12.77;;;6.60;;
71610;SDS011;59459;51.172;6.682;2022-07-25T02:23:43;12.13;;;6.27;;
71610;SDS011;59459;51.172;6.682;2022-07-25T02:26:08;14.40;;;6.60;;
71610;SDS011;59459;51.172;6.682;2022-07-25T02:28:34;12.53;;;6.87;;
71610;SDS011;59459;51.172;6.682;2022-07-25T02:30:59;12.30;;;6.37;;
71610;SDS011;59459;51.172;6.682;2022-07-25T02:33:25;14.80;;;6.27;;
71610;SDS011;59459;51.172;6.682;2022-07-25T02:35:50;15.57;;;6.87;;
71610;SDS011;59459;51.172;6.682;2022-07-25T02:38:15;13.27;;;6.83;;
71610;SDS011;59459;51.172;6.682;2022-07-25T02:40:46;12.67;;;6.27;;
71610;SDS011;59459;51.172;6.682;2022-07-25T02:43:12;13.07;;;7.13;;
71610;SDS011;59459;51.172;6.682;2022-07-25T02:45:37;12.47;;;6.77;;
71610;SDS011;59459;51.172;6.682;2022-07-25T02:48:03;15.33;;;6.93;;
71610;SDS011;59459;51.172;6.682;2022-07-25T02:50:28;12.87;;;6.77;;
71610;SDS011;59459;51.172;6.682;2022-07-25T02:52:54;12.73;;;7.03;;
71610;SDS011;59459;51.172;6.682;2022-07-25T02:55:19;12.03;;;6.53;;
71610;SDS011;59459;51.172;6.682;2022-07-25T02:57:44;12.23;;;6.20;;
71610;SDS011;59459;51.172;6.682;2022-07-25T03:00:09;13.37;;;6.47;;
71610;SDS011;59459;51.172;6.682;2022-07-25T03:02:35;12.82;;;7.35;;
71610;SDS011;59459;51.172;6.682;2022-07-25T03:05:00;10.67;;;6.10;;
71610;SDS011;59459;51.172;6.682;2022-07-25T03:07:25;12.83;;;6.07;;
71610;SDS011;59459;51.172;6.682;2022-07-25T03:09:51;11.47;;;6.60;;
71610;SDS011;59459;51.172;6.682;2022-07-25T03:12:16;13.83;;;7.03;;
71610;SDS011;59459;51.172;6.682;2022-07-25T03:14:41;11.27;;;6.60;;
71610;SDS011;59459;51.172;6.682;2022-07-25T03:17:06;11.13;;;6.30;;
71610;SDS011;59459;51.172;6.682;2022-07-25T03:19:31;12.50;;;6.23;;
71610;SDS011;59459;51.172;6.682;2022-07-25T03:21:57;11.30;;;6.07;;
71610;SDS011;59459;51.172;6.682;2022-07-25T03:24:22;13.27;;;6.13;;
71610;SDS011;59459;51.172;6.682;2022-07-25T03:26:47;11.73;;;6.10;;
71610;SDS011;59459;51.172;6.682;2022-07-25T03:29:12;12.23;;;5.90;;
71610;SDS011;59459;51.172;6.682;2022-07-25T03:31:37;12.27;;;6.10;;
71610;SDS011;59459;51.172;6.682;2022-07-25T03:34:03;12.43;;;6.57;;
71610;SDS011;59459;51.172;6.682;2022-07-25T03:36:28;10.13;;;5.47;;
71610;SDS011;59459;51.172;6.682;2022-07-25T03:38:53;14.57;;;5.97;;
71610;SDS011;59459;51.172;6.682;2022-07-25T03:41:20;11.43;;;5.65;;
71610;SDS011;59459;51.172;6.682;2022-07-25T03:43:45;9.97;;;6.03;;
71610;SDS011;59459;51.172;6.682;2022-07-25T03:46:11;9.87;;;5.57;;
71610;SDS011;59459;51.172;6.682;2022-07-25T03:48:36;10.87;;;5.70;;
71610;SDS011;59459;51.172;6.682;2022-07-25T03:51:01;10.80;;;5.43;;
71610;SDS011;59459;51.172;6.682;2022-07-25T03:53:26;10.87;;;5.63;;
71610;SDS011;59459;51.172;6.682;2022-07-25T03:55:52;9.57;;;5.40;;
71610;SDS011;59459;51.172;6.682;2022-07-25T03:58:17;9.60;;;5.23;;
71610;SDS011;59459;51.172;6.682;2022-07-25T04:00:42;11.23;;;6.27;;
71610;SDS011;59459;51.172;6.682;2022-07-25T04:03:07;9.80;;;5.63;;
71610;SDS011;59459;51.172;6.682;2022-07-25T04:05:32;11.50;;;5.17;;
71610;SDS011;59459;51.172;6.682;2022-07-25T04:07:58;9.83;;;6.10;;
71610;SDS011;59459;51.172;6.682;2022-07-25T04:10:23;12.97;;;6.03;;
71610;SDS011;59459;51.172;6.682;2022-07-25T04:12:48;12.57;;;5.80;;
71610;SDS011;59459;51.172;6.682;2022-07-25T04:15:13;9.80;;;5.23;;
71610;SDS011;59459;51.172;6.682;2022-07-25T04:17:39;10.73;;;5.50;;
71610;SDS011;59459;51.172;6.682;2022-07-25T04:20:04;10.27;;;5.50;;
71610;SDS011;59459;51.172;6.682;2022-07-25T04:22:30;9.93;;;4.90;;
71610;SDS011;59459;51.172;6.682;2022-07-25T04:24:55;11.37;;;5.63;;
71610;SDS011;59459;51.172;6.682;2022-07-25T04:27:20;10.23;;;5.57;;
71610;SDS011;59459;51.172;6.682;2022-07-25T04:29:46;9.47;;;5.03;;
71610;SDS011;59459;51.172;6.682;2022-07-25T04:32:11;10.80;;;5.70;;
71610;SDS011;59459;51.172;6.682;2022-07-25T04:34:37;10.65;;;5.45;;
71610;SDS011;59459;51.172;6.682;2022-07-25T04:37:02;11.77;;;5.10;;
71610;SDS011;59459;51.172;6.682;2022-07-25T04:39:28;11.00;;;5.17;;
71610;SDS011;59459;51.172;6.682;2022-07-25T04:41:53;10.67;;;5.50;;
71610;SDS011;59459;51.172;6.682;2022-07-25T04:44:18;10.87;;;5.40;;
71610;SDS011;59459;51.172;6.682;2022-07-25T04:46:43;10.17;;;5.03;;
71610;SDS011;59459;51.172;6.682;2022-07-25T04:49:08;9.20;;;5.10;;
71610;SDS011;59459;51.172;6.682;2022-07-25T04:51:34;11.40;;;5.23;;
71610;SDS011;59459;51.172;6.682;2022-07-25T04:53:59;9.30;;;4.77;;
71610;SDS011;59459;51.172;6.682;2022-07-25T04:56:24;11.30;;;5.10;;
71610;SDS011;59459;51.172;6.682;2022-07-25T04:58:49;11.47;;;6.00;;
71610;SDS011;59459;51.172;6.682;2022-07-25T05:01:15;12.37;;;5.67;;
71610;SDS011;59459;51.172;6.682;2022-07-25T05:03:40;10.70;;;5.50;;
71610;SDS011;59459;51.172;6.682;2022-07-25T05:06:05;10.90;;;5.90;;
71610;SDS011;59459;51.172;6.682;2022-07-25T05:08:30;9.65;;;5.25;;
71610;SDS011;59459;51.172;6.682;2022-07-25T05:10:56;9.20;;;5.03;;
71610;SDS011;59459;51.172;6.682;2022-07-25T05:13:21;12.70;;;5.80;;
71610;SDS011;59459;51.172;6.682;2022-07-25T05:15:46;10.87;;;5.77;;
71610;SDS011;59459;51.172;6.682;2022-07-25T05:18:11;13.03;;;6.20;;
71610;SDS011;59459;51.172;6.682;2022-07-25T05:20:37;11.30;;;5.83;;
71610;SDS011;59459;51.172;6.682;2022-07-25T05:23:02;11.10;;;5.80;;
71610;SDS011;59459;51.172;6.682;2022-07-25T05:25:27;9.17;;;5.23;;
71610;SDS011;59459;51.172;6.682;2022-07-25T05:27:53;13.68;;;5.82;;
71610;SDS011;59459;51.172;6.682;2022-07-25T05:30:19;11.10;;;5.73;;
71610;SDS011;59459;51.172;6.682;2022-07-25T05:32:45;10.98;;;5.82;;
71610;SDS011;59459;51.172;6.682;2022-07-25T05:35:10;9.37;;;5.37;;
71610;SDS011;59459;51.172;6.682;2022-07-25T05:37:36;12.10;;;5.87;;
71610;SDS011;59459;51.172;6.682;2022-07-25T05:40:02;11.02;;;6.18;;
71610;SDS011;59459;51.172;6.682;2022-07-25T05:42:27;11.40;;;6.30;;
71610;SDS011;59459;51.172;6.682;2022-07-25T05:44:52;9.73;;;5.60;;
71610;SDS011;59459;51.172;6.682;2022-07-25T05:47:17;11.17;;;6.20;;
71610;SDS011;59459;51.172;6.682;2022-07-25T05:49:43;11.57;;;6.40;;
71610;SDS011;59459;51.172;6.682;2022-07-25T05:52:08;11.05;;;6.32;;
71610;SDS011;59459;51.172;6.682;2022-07-25T05:54:34;11.10;;;5.60;;
71610;SDS011;59459;51.172;6.682;2022-07-25T05:56:59;14.03;;;6.77;;
71610;SDS011;59459;51.172;6.682;2022-07-25T05:59:25;11.35;;;5.95;;
71610;SDS011;59459;51.172;6.682;2022-07-25T06:01:51;11.03;;;6.13;;
71610;SDS011;59459;51.172;6.682;2022-07-25T06:04:16;10.47;;;5.70;;
71610;SDS011;59459;51.172;6.682;2022-07-25T06:06:41;9.97;;;5.50;;
71610;SDS011;59459;51.172;6.682;2022-07-25T06:09:06;9.87;;;5.47;;
71610;SDS011;59459;51.172;6.682;2022-07-25T06:11:32;11.93;;;6.03;;
71610;SDS011;59459;51.172;6.682;2022-07-25T06:13:57;11.20;;;6.00;;
71610;SDS011;59459;51.172;6.682;2022-07-25T06:16:23;12.57;;;6.50;;
71610;SDS011;59459;51.172;6.682;2022-07-25T06:18:48;11.60;;;5.90;;
71610;SDS011;59459;51.172;6.682;2022-07-25T06:21:13;10.20;;;5.40;;
71610;SDS011;59459;51.172;6.682;2022-07-25T06:23:38;11.17;;;5.67;;
71610;SDS011;59459;51.172;6.682;2022-07-25T06:26:07;12.20;;;5.73;;
71610;SDS011;59459;51.172;6.682;2022-07-25T06:28:32;10.17;;;5.50;;
71610;SDS011;59459;51.172;6.682;2022-07-25T06:30:58;10.30;;;6.13;;
71610;SDS011;59459;51.172;6.682;2022-07-25T06:33:23;11.35;;;6.43;;
71610;SDS011;59459;51.172;6.682;2022-07-25T06:35:48;10.80;;;5.53;;
71610;SDS011;59459;51.172;6.682;2022-07-25T06:38:13;9.17;;;6.07;;
71610;SDS011;59459;51.172;6.682;2022-07-25T06:40:39;11.17;;;5.60;;
71610;SDS011;59459;51.172;6.682;2022-07-25T06:43:04;10.43;;;5.57;;
71610;SDS011;59459;51.172;6.682;2022-07-25T06:45:29;10.63;;;5.33;;
71610;SDS011;59459;51.172;6.682;2022-07-25T06:47:54;10.53;;;5.63;;
71610;SDS011;59459;51.172;6.682;2022-07-25T06:50:20;10.80;;;6.10;;
71610;SDS011;59459;51.172;6.682;2022-07-25T06:52:45;12.50;;;5.47;;
71610;SDS011;59459;51.172;6.682;2022-07-25T06:55:12;11.18;;;6.20;;
71610;SDS011;59459;51.172;6.682;2022-07-25T06:57:37;10.70;;;5.68;;
71610;SDS011;59459;51.172;6.682;2022-07-25T07:00:06;9.83;;;5.90;;
71610;SDS011;59459;51.172;6.682;2022-07-25T07:02:33;10.00;;;5.55;;
71610;SDS011;59459;51.172;6.682;2022-07-25T07:04:59;9.93;;;6.17;;
71610;SDS011;59459;51.172;6.682;2022-07-25T07:07:24;9.20;;;6.00;;
71610;SDS011;59459;51.172;6.682;2022-07-25T07:09:49;11.80;;;6.23;;
71610;SDS011;59459;51.172;6.682;2022-07-25T07:12:14;9.90;;;5.83;;
71610;SDS011;59459;51.172;6.682;2022-07-25T07:14:40;9.93;;;5.57;;
71610;SDS011;59459;51.172;6.682;2022-07-25T07:17:07;10.88;;;5.80;;
71610;SDS011;59459;51.172;6.682;2022-07-25T07:19:32;10.00;;;5.80;;
71610;SDS011;59459;51.172;6.682;2022-07-25T07:21:57;10.53;;;5.80;;
71610;SDS011;59459;51.172;6.682;2022-07-25T07:24:23;11.43;;;6.70;;
71610;SDS011;59459;51.172;6.682;2022-07-25T07:26:48;11.57;;;5.93;;
71610;SDS011;59459;51.172;6.682;2022-07-25T07:29:13;17.27;;;5.50;;
71610;SDS011;59459;51.172;6.682;2022-07-25T07:31:38;9.53;;;5.40;;
71610;SDS011;59459;51.172;6.682;2022-07-25T07:34:04;11.27;;;5.90;;
71610;SDS011;59459;51.172;6.682;2022-07-25T07:36:30;10.90;;;5.33;;
71610;SDS011;59459;51.172;6.682;2022-07-25T07:38:55;10.03;;;5.83;;
71610;SDS011;59459;51.172;6.682;2022-07-25T07:41:20;10.50;;;5.27;;
71610;SDS011;59459;51.172;6.682;2022-07-25T07:43:45;8.73;;;5.30;;
71610;SDS011;59459;51.172;6.682;2022-07-25T07:46:11;10.47;;;6.00;;
71610;SDS011;59459;51.172;6.682;2022-07-25T07:48:36;11.60;;;5.63;;
71610;SDS011;59459;51.172;6.682;2022-07-25T07:51:02;11.83;;;5.60;;
71610;SDS011;59459;51.172;6.682;2022-07-25T07:53:27;9.85;;;5.78;;
71610;SDS011;59459;51.172;6.682;2022-07-25T07:56:11;10.00;;;5.33;;
71610;SDS011;59459;51.172;6.682;2022-07-25T07:58:36;10.45;;;5.03;;
71610;SDS011;59459;51.172;6.682;2022-07-25T08:01:02;12.13;;;5.67;;
71610;SDS011;59459;51.172;6.682;2022-07-25T08:03:27;10.17;;;5.50;;
71610;SDS011;59459;51.172;6.682;2022-07-25T08:05:52;11.23;;;5.40;;
71610;SDS011;59459;51.172;6.682;2022-07-25T08:08:18;10.97;;;4.80;;
71610;SDS011;59459;51.172;6.682;2022-07-25T08:10:45;9.73;;;4.80;;
71610;SDS011;59459;51.172;6.682;2022-07-25T08:15:42;9.73;;;4.35;;
71610;SDS011;59459;51.172;6.682;2022-07-25T08:18:07;11.95;;;4.40;;
71610;SDS011;59459;51.172;6.682;2022-07-25T08:20:32;9.60;;;4.93;;
71610;SDS011;59459;51.172;6.682;2022-07-25T08:22:58;15.77;;;4.90;;
71610;SDS011;59459;51.172;6.682;2022-07-25T08:25:23;7.70;;;4.47;;
71610;SDS011;59459;51.172;6.682;2022-07-25T08:27:48;8.60;;;4.60;;
71610;SDS011;59459;51.172;6.682;2022-07-25T08:30:14;9.53;;;4.83;;
71610;SDS011;59459;51.172;6.682;2022-07-25T08:32:46;9.73;;;4.70;;
71610;SDS011;59459;51.172;6.682;2022-07-25T08:35:12;11.40;;;5.05;;
71610;SDS011;59459;51.172;6.682;2022-07-25T08:37:37;9.07;;;4.88;;
71610;SDS011;59459;51.172;6.682;2022-07-25T08:40:03;8.80;;;4.90;;
71610;SDS011;59459;51.172;6.682;2022-07-25T08:42:28;9.10;;;4.43;;
71610;SDS011;59459;51.172;6.682;2022-07-25T08:44:57;8.67;;;4.43;;
71610;SDS011;59459;51.172;6.682;2022-07-25T08:47:22;10.40;;;5.07;;
71610;SDS011;59459;51.172;6.682;2022-07-25T08:49:48;10.03;;;5.17;;
71610;SDS011;59459;51.172;6.682;2022-07-25T08:52:13;8.87;;;5.07;;
71610;SDS011;59459;51.172;6.682;2022-07-25T08:54:39;8.17;;;4.57;;
71610;SDS011;59459;51.172;6.682;2022-07-25T08:57:04;11.30;;;4.90;;
71610;SDS011;59459;51.172;6.682;2022-07-25T08:59:30;9.47;;;5.47;;
71610;SDS011;59459;51.172;6.682;2022-07-25T09:01:56;10.52;;;5.50;;
71610;SDS011;59459;51.172;6.682;2022-07-25T09:04:22;11.07;;;5.60;;
71610;SDS011;59459;51.172;6.682;2022-07-25T09:06:48;9.73;;;4.93;;
71610;SDS011;59459;51.172;6.682;2022-07-25T09:09:14;10.13;;;5.28;;
71610;SDS011;59459;51.172;6.682;2022-07-25T09:11:39;9.23;;;5.00;;
71610;SDS011;59459;51.172;6.682;2022-07-25T09:14:05;9.23;;;5.30;;
71610;SDS011;59459;51.172;6.682;2022-07-25T09:16:31;8.13;;;5.28;;
71610;SDS011;59459;51.172;6.682;2022-07-25T09:21:32;10.02;;;5.05;;
71610;SDS011;59459;51.172;6.682;2022-07-25T09:24:06;8.60;;;4.73;;
71610;SDS011;59459;51.172;6.682;2022-07-25T09:26:31;11.48;;;4.80;;
71610;SDS011;59459;51.172;6.682;2022-07-25T09:29:06;9.77;;;4.80;;
71610;SDS011;59459;51.172;6.682;2022-07-25T09:31:31;8.73;;;4.70;;
71610;SDS011;59459;51.172;6.682;2022-07-25T09:33:58;9.18;;;5.15;;
71610;SDS011;59459;51.172;6.682;2022-07-25T09:36:25;11.40;;;5.30;;
71610;SDS011;59459;51.172;6.682;2022-07-25T09:38:54;8.97;;;4.80;;
71610;SDS011;59459;51.172;6.682;2022-07-25T09:41:20;9.98;;;5.47;;
71610;SDS011;59459;51.172;6.682;2022-07-25T09:43:45;10.07;;;4.82;;
71610;SDS011;59459;51.172;6.682;2022-07-25T09:46:11;9.73;;;4.83;;
71610;SDS011;59459;51.172;6.682;2022-07-25T09:48:37;10.03;;;5.00;;
71610;SDS011;59459;51.172;6.682;2022-07-25T09:51:03;9.68;;;4.85;;
71610;SDS011;59459;51.172;6.682;2022-07-25T09:53:29;11.18;;;4.88;;
71610;SDS011;59459;51.172;6.682;2022-07-25T09:55:54;8.97;;;4.90;;
71610;SDS011;59459;51.172;6.682;2022-07-25T09:58:21;8.90;;;4.67;;
71610;SDS011;59459;51.172;6.682;2022-07-25T10:00:46;10.93;;;4.80;;
71610;SDS011;59459;51.172;6.682;2022-07-25T10:08:40;7.72;;;4.00;;
71610;SDS011;59459;51.172;6.682;2022-07-25T10:11:16;7.93;;;4.03;;
71610;SDS011;59459;51.172;6.682;2022-07-25T10:13:42;7.82;;;4.65;;
71610;SDS011;59459;51.172;6.682;2022-07-25T10:16:14;9.33;;;3.43;;
71610;SDS011;59459;51.172;6.682;2022-07-25T10:18:45;8.50;;;3.50;;
71610;SDS011;59459;51.172;6.682;2022-07-25T10:21:11;7.57;;;3.58;;
71610;SDS011;59459;51.172;6.682;2022-07-25T10:23:36;7.30;;;3.10;;
71610;SDS011;59459;51.172;6.682;2022-07-25T10:28:37;7.00;;;3.35;;
71610;SDS011;59459;51.172;6.682;2022-07-25T10:31:13;6.95;;;2.90;;
71610;SDS011;59459;51.172;6.682;2022-07-25T10:33:41;7.93;;;3.55;;
71610;SDS011;59459;51.172;6.682;2022-07-25T10:36:06;7.70;;;3.37;;
71610;SDS011;59459;51.172;6.682;2022-07-25T10:38:32;7.00;;;3.20;;
71610;SDS011;59459;51.172;6.682;2022-07-25T10:40:59;5.47;;;2.77;;
71610;SDS011;59459;51.172;6.682;2022-07-25T10:43:24;9.30;;;3.67;;
71610;SDS011;59459;51.172;6.682;2022-07-25T10:45:52;6.73;;;2.57;;
71610;SDS011;59459;51.172;6.682;2022-07-25T10:48:24;6.75;;;3.40;;
71610;SDS011;59459;51.172;6.682;2022-07-25T10:50:51;8.07;;;3.60;;
71610;SDS011;59459;51.172;6.682;2022-07-25T10:53:26;5.15;;;3.10;;
71610;SDS011;59459;51.172;6.682;2022-07-25T10:55:55;5.20;;;3.60;;
71610;SDS011;59459;51.172;6.682;2022-07-25T10:58:21;4.90;;;2.33;;
71610;SDS011;59459;51.172;6.682;2022-07-25T11:00:46;6.82;;;2.20;;
71610;SDS011;59459;51.172;6.682;2022-07-25T11:03:12;5.33;;;3.43;;
71610;SDS011;59459;51.172;6.682;2022-07-25T11:05:44;4.63;;;2.90;;
71610;SDS011;59459;51.172;6.682;2022-07-25T11:08:09;5.40;;;3.28;;
71610;SDS011;59459;51.172;6.682;2022-07-25T11:10:35;5.87;;;2.90;;
71610;SDS011;59459;51.172;6.682;2022-07-25T11:13:00;6.50;;;2.83;;
71610;SDS011;59459;51.172;6.682;2022-07-25T11:15:25;8.10;;;3.07;;
71610;SDS011;59459;51.172;6.682;2022-07-25T11:17:51;5.27;;;3.00;;
71610;SDS011;59459;51.172;6.682;2022-07-25T11:20:17;7.80;;;2.67;;
71610;SDS011;59459;51.172;6.682;2022-07-25T11:22:49;6.78;;;3.30;;
71610;SDS011;59459;51.172;6.682;2022-07-25T11:25:14;5.60;;;3.60;;
71610;SDS011;59459;51.172;6.682;2022-07-25T11:27:40;5.37;;;2.40;;
71610;SDS011;59459;51.172;6.682;2022-07-25T11:30:09;6.70;;;3.40;;
71610;SDS011;59459;51.172;6.682;2022-07-25T11:32:48;6.47;;;2.97;;
71610;SDS011;59459;51.172;6.682;2022-07-25T11:35:22;8.43;;;3.83;;
71610;SDS011;59459;51.172;6.682;2022-07-25T11:37:48;6.10;;;2.97;;
71610;SDS011;59459;51.172;6.682;2022-07-25T11:40:14;5.00;;;2.65;;
71610;SDS011;59459;51.172;6.682;2022-07-25T11:45:14;5.80;;;3.33;;
71610;SDS011;59459;51.172;6.682;2022-07-25T11:47:40;5.70;;;3.25;;
71610;SDS011;59459;51.172;6.682;2022-07-25T11:50:05;6.67;;;3.10;;
71610;SDS011;59459;51.172;6.682;2022-07-25T11:52:35;6.80;;;4.43;;
71610;SDS011;59459;51.172;6.682;2022-07-25T11:55:01;6.70;;;2.87;;
71610;SDS011;59459;51.172;6.682;2022-07-25T11:57:27;7.20;;;3.08;;
71610;SDS011;59459;51.172;6.682;2022-07-25T11:59:53;8.55;;;3.65;;
71610;SDS011;59459;51.172;6.682;2022-07-25T12:02:20;6.13;;;3.58;;
71610;SDS011;59459;51.172;6.682;2022-07-25T12:07:19;7.20;;;3.03;;
71610;SDS011;59459;51.172;6.682;2022-07-25T12:09:54;8.43;;;3.10;;
71610;SDS011;59459;51.172;6.682;2022-07-25T12:12:19;8.20;;;3.50;;
71610;SDS011;59459;51.172;6.682;2022-07-25T12:14:44;7.20;;;2.83;;
71610;SDS011;59459;51.172;6.682;2022-07-25T12:17:09;6.40;;;3.37;;
71610;SDS011;59459;51.172;6.682;2022-07-25T12:19:34;5.77;;;2.90;;
71610;SDS011;59459;51.172;6.682;2022-07-25T12:22:03;7.40;;;2.60;;
71610;SDS011;59459;51.172;6.682;2022-07-25T12:24:29;7.27;;;2.97;;
71610;SDS011;59459;51.172;6.682;2022-07-25T12:26:54;8.37;;;3.00;;
71610;SDS011;59459;51.172;6.682;2022-07-25T12:29:19;6.33;;;2.93;;
71610;SDS011;59459;51.172;6.682;2022-07-25T12:31:44;8.43;;;2.77;;
71610;SDS011;59459;51.172;6.682;2022-07-25T12:34:09;9.73;;;2.93;;
71610;SDS011;59459;51.172;6.682;2022-07-25T12:36:35;7.47;;;2.60;;
71610;SDS011;59459;51.172;6.682;2022-07-25T12:39:07;7.93;;;2.63;;
71610;SDS011;59459;51.172;6.682;2022-07-25T12:41:33;6.25;;;2.78;;
71610;SDS011;59459;51.172;6.682;2022-07-25T12:43:58;6.50;;;3.03;;
71610;SDS011;59459;51.172;6.682;2022-07-25T12:46:24;6.47;;;2.77;;
71610;SDS011;59459;51.172;6.682;2022-07-25T12:48:50;5.60;;;2.67;;
71610;SDS011;59459;51.172;6.682;2022-07-25T12:51:15;7.13;;;2.70;;
71610;SDS011;59459;51.172;6.682;2022-07-25T12:53:40;7.50;;;3.03;;
71610;SDS011;59459;51.172;6.682;2022-07-25T12:56:05;5.63;;;2.37;;
71610;SDS011;59459;51.172;6.682;2022-07-25T12:58:31;8.03;;;2.80;;
71610;SDS011;59459;51.172;6.682;2022-07-25T13:00:56;7.10;;;2.80;;
71610;SDS011;59459;51.172;6.682;2022-07-25T13:03:21;7.27;;;2.30;;
71610;SDS011;59459;51.172;6.682;2022-07-25T13:05:46;7.23;;;2.63;;
71610;SDS011;59459;51.172;6.682;2022-07-25T13:08:12;6.90;;;2.20;;
71610;SDS011;59459;51.172;6.682;2022-07-25T13:10:37;9.03;;;2.40;;
71610;SDS011;59459;51.172;6.682;2022-07-25T13:13:02;5.53;;;2.50;;
71610;SDS011;59459;51.172;6.682;2022-07-25T13:15:28;4.87;;;2.23;;
71610;SDS011;59459;51.172;6.682;2022-07-25T13:17:54;4.85;;;1.90;;
71610;SDS011;59459;51.172;6.682;2022-07-25T13:20:19;6.30;;;2.20;;
71610;SDS011;59459;51.172;6.682;2022-07-25T13:22:44;5.17;;;2.10;;
71610;SDS011;59459;51.172;6.682;2022-07-25T13:25:09;3.13;;;1.50;;
71610;SDS011;59459;51.172;6.682;2022-07-25T13:27:35;5.25;;;1.90;;
71610;SDS011;59459;51.172;6.682;2022-07-25T13:30:01;4.07;;;1.93;;
71610;SDS011;59459;51.172;6.682;2022-07-25T13:32:26;5.60;;;2.10;;
71610;SDS011;59459;51.172;6.682;2022-07-25T13:34:52;8.27;;;2.00;;
71610;SDS011;59459;51.172;6.682;2022-07-25T13:37:17;4.57;;;2.03;;
71610;SDS011;59459;51.172;6.682;2022-07-25T13:39:43;4.38;;;1.60;;
71610;SDS011;59459;51.172;6.682;2022-07-25T13:42:08;4.97;;;2.20;;
71610;SDS011;59459;51.172;6.682;2022-07-25T13:44:33;4.60;;;1.80;;
71610;SDS011;59459;51.172;6.682;2022-07-25T13:46:59;7.80;;;2.67;;
71610;SDS011;59459;51.172;6.682;2022-07-25T13:49:24;8.90;;;2.85;;
71610;SDS011;59459;51.172;6.682;2022-07-25T13:51:50;7.27;;;1.90;;
71610;SDS011;59459;51.172;6.682;2022-07-25T13:54:15;6.67;;;2.10;;
71610;SDS011;59459;51.172;6.682;2022-07-25T13:56:40;5.63;;;2.03;;
71610;SDS011;59459;51.172;6.682;2022-07-25T13:59:06;4.53;;;2.07;;
71610;SDS011;59459;51.172;6.682;2022-07-25T14:01:32;5.43;;;2.20;;
71610;SDS011;59459;51.172;6.682;2022-07-25T14:03:57;3.47;;;1.90;;
71610;SDS011;59459;51.172;6.682;2022-07-25T14:06:22;6.30;;;2.17;;
71610;SDS011;59459;51.172;6.682;2022-07-25T14:08:48;6.82;;;2.13;;
71610;SDS011;59459;51.172;6.682;2022-07-25T14:11:13;5.30;;;2.40;;
71610;SDS011;59459;51.172;6.682;2022-07-25T14:13:38;5.67;;;1.83;;
71610;SDS011;59459;51.172;6.682;2022-07-25T14:16:04;5.37;;;1.90;;
71610;SDS011;59459;51.172;6.682;2022-07-25T14:18:29;7.07;;;2.23;;
71610;SDS011;59459;51.172;6.682;2022-07-25T14:20:56;8.10;;;2.10;;
71610;SDS011;59459;51.172;6.682;2022-07-25T14:23:21;4.38;;;2.10;;
71610;SDS011;59459;51.172;6.682;2022-07-25T14:25:46;5.83;;;2.23;;
71610;SDS011;59459;51.172;6.682;2022-07-25T14:28:12;4.60;;;1.97;;
71610;SDS011;59459;51.172;6.682;2022-07-25T14:30:37;6.90;;;1.90;;
71610;SDS011;59459;51.172;6.682;2022-07-25T14:33:03;5.43;;;1.90;;
71610;SDS011;59459;51.172;6.682;2022-07-25T14:35:28;5.78;;;2.22;;
71610;SDS011;59459;51.172;6.682;2022-07-25T14:37:54;9.57;;;2.00;;
71610;SDS011;59459;51.172;6.682;2022-07-25T14:40:19;7.97;;;2.03;;
71610;SDS011;59459;51.172;6.682;2022-07-25T14:42:44;5.00;;;1.83;;
71610;SDS011;59459;51.172;6.682;2022-07-25T14:45:10;6.75;;;1.98;;
71610;SDS011;59459;51.172;6.682;2022-07-25T14:47:36;7.10;;;1.93;;
71610;SDS011;59459;51.172;6.682;2022-07-25T14:50:01;7.53;;;1.92;;